Time;durP1;ratioP1;P1;durP2;ratioP2;P2;SDS_P1;SDS_P2;PMS_P1;PMS_P2;Temp;Humidity;BMP_temperature;BMP_pressure;BME280_temperature;BME280_humidity;BME280_pressure;Samples;Min_cycle;Max_cycle;Signal;HPM_P1;HPM_P2
2022/01/24 00:00:11;;;;;;;26.88;17.17;;;;;;;;;;5023307;28;20185;-80
2022/01/24 00:02:42;;;;;;;24.90;16.58;;;;;;;;;;5028485;28;20341;-80
2022/01/24 00:05:08;;;;;;;26.02;17.48;;;;;;;;;;5043024;28;20615;-80
2022/01/24 00:07:34;;;;;;;24.33;17.75;;;;;;;;;;5024723;28;20189;-80
2022/01/24 00:10:04;;;;;;;28.52;17.67;;;;;;;;;;5024837;28;20198;-80
2022/01/24 00:12:40;;;;;;;28.90;19.00;;;;;;;;;;5025942;28;20268;-80
2022/01/24 00:15:18;;;;;;;32.53;18.20;;;;;;;;;;5040996;28;20760;-80
2022/01/24 00:18:27;;;;;;;34.22;19.08;;;;;;;;;;5040467;28;20675;-80
2022/01/24 00:28:54;;;;;;;28.00;17.13;;;;;;;;;;4985218;28;20201;-80
2022/01/24 00:31:20;;;;;;;26.58;17.13;;;;;;;;;;4983147;28;20242;-80
2022/01/24 00:33:46;;;;;;;30.27;17.02;;;;;;;;;;4986704;28;20180;-80
2022/01/24 00:36:12;;;;;;;25.17;16.63;;;;;;;;;;4991941;28;20209;-80
2022/01/24 00:38:38;;;;;;;29.65;18.50;;;;;;;;;;4975419;28;20219;-80
2022/01/24 00:41:04;;;;;;;31.60;17.40;;;;;;;;;;4967644;28;20198;-80
2022/01/24 00:44:13;;;;;;;32.75;18.02;;;;;;;;;;4981476;28;20194;-80
2022/01/24 00:46:30;;;;;;;37.05;17.85;;;;;;;;;;4983199;28;20187;-80
2022/01/24 00:54:42;;;;;;;27.73;15.68;;;;;;;;;;4987819;28;20214;-80
2022/01/24 00:57:08;;;;;;;26.08;17.33;;;;;;;;;;4987619;28;20187;-80
2022/01/24 00:59:34;;;;;;;26.73;17.00;;;;;;;;;;4976481;28;20202;-81
2022/01/24 01:02:00;;;;;;;27.77;17.35;;;;;;;;;;5027295;28;20177;-80
2022/01/24 01:04:35;;;;;;;29.42;18.05;;;;;;;;;;5046105;28;20194;-80
2022/01/24 01:07:05;;;;;;;28.85;17.50;;;;;;;;;;5027080;28;20542;-80
2022/01/24 01:20:40;;;;;;;26.85;16.67;;;;;;;;;;5043843;28;20201;-80
2022/01/24 01:23:06;;;;;;;29.48;18.10;;;;;;;;;;5023862;28;20235;-81
2022/01/24 01:25:33;;;;;;;29.52;15.70;;;;;;;;;;5045644;28;20777;-80
2022/01/24 01:28:00;;;;;;;29.25;17.65;;;;;;;;;;5044672;28;20186;-80
2022/01/24 01:30:36;;;;;;;25.73;16.70;;;;;;;;;;5046938;28;20201;-80
2022/01/24 01:33:11;;;;;;;31.48;18.63;;;;;;;;;;5028608;28;20614;-81
2022/01/24 01:52:17;;;;;;;27.92;16.33;;;;;;;;;;5046494;28;20184;-81
2022/01/24 01:54:17;;;;;;;27.13;15.98;;;;;;;;;;5047181;28;20208;-80
2022/01/24 01:56:43;;;;;;;24.77;16.60;;;;;;;;;;5027265;28;20201;-80
2022/01/24 01:59:09;;;;;;;26.05;17.02;;;;;;;;;;5026807;28;20264;-80
2022/01/24 02:01:35;;;;;;;24.45;15.63;;;;;;;;;;5025104;28;20259;-80
2022/01/24 02:04:03;;;;;;;24.30;17.90;;;;;;;;;;5026275;28;20177;-80
2022/01/24 02:06:30;;;;;;;25.38;17.27;;;;;;;;;;5045694;28;20268;-80
2022/01/24 02:09:16;;;;;;;29.15;17.35;;;;;;;;;;5045691;28;20181;-80
2022/01/24 02:11:42;;;;;;;26.80;17.08;;;;;;;;;;5026415;28;20642;-80
2022/01/24 02:14:16;;;;;;;24.83;15.93;;;;;;;;;;5026532;28;20180;-80
2022/01/24 02:16:58;;;;;;;30.13;17.38;;;;;;;;;;5045590;28;20530;-80
2022/01/24 02:19:52;;;;;;;23.92;15.23;;;;;;;;;;5025893;28;20181;-80
2022/01/24 02:25:01;;;;;;;32.60;17.83;;;;;;;;;;5040535;28;20174;-80
2022/01/24 02:27:40;;;;;;;24.40;16.13;;;;;;;;;;5045439;28;20201;-80
2022/01/24 02:30:24;;;;;;;26.90;16.08;;;;;;;;;;5027468;28;20212;-80
2022/01/24 02:32:50;;;;;;;24.40;16.83;;;;;;;;;;5026110;28;20182;-80
2022/01/24 02:35:16;;;;;;;20.25;14.98;;;;;;;;;;5045604;28;20174;-80
2022/01/24 02:37:42;;;;;;;23.70;15.52;;;;;;;;;;5028454;28;20184;-80
2022/01/24 02:40:13;;;;;;;28.08;15.30;;;;;;;;;;5025860;28;20186;-80
2022/01/24 02:48:26;;;;;;;28.58;15.85;;;;;;;;;;5042842;28;20295;-80
2022/01/24 02:53:19;;;;;;;22.48;14.68;;;;;;;;;;5035087;28;20249;-80
2022/01/24 02:55:45;;;;;;;24.17;15.35;;;;;;;;;;5042074;28;20177;-79
2022/01/24 02:58:11;;;;;;;24.70;15.50;;;;;;;;;;5042580;28;20677;-79
2022/01/24 03:00:38;;;;;;;27.80;15.02;;;;;;;;;;5041641;28;20174;-79
2022/01/24 03:03:04;;;;;;;24.08;14.00;;;;;;;;;;5038185;28;20204;-79
2022/01/24 03:05:30;;;;;;;22.70;14.38;;;;;;;;;;5035013;28;20192;-79
2022/01/24 03:07:56;;;;;;;23.17;14.57;;;;;;;;;;5042642;28;20252;-79
2022/01/24 03:10:36;;;;;;;31.40;15.88;;;;;;;;;;5040820;28;20670;-79
2022/01/24 03:15:40;;;;;;;23.73;15.25;;;;;;;;;;5041814;28;20193;-79
2022/01/24 03:18:07;;;;;;;27.73;14.30;;;;;;;;;;5040245;28;20220;-79
2022/01/24 03:20:33;;;;;;;30.23;15.30;;;;;;;;;;5041332;28;20251;-79
2022/01/24 03:22:59;;;;;;;22.25;13.70;;;;;;;;;;5040697;28;20530;-79
2022/01/24 03:25:25;;;;;;;21.75;14.43;;;;;;;;;;5042295;28;20192;-79
2022/01/24 03:27:51;;;;;;;26.55;14.57;;;;;;;;;;5043180;28;20202;-79
2022/01/24 03:30:17;;;;;;;25.48;14.25;;;;;;;;;;5041061;28;20209;-79
2022/01/24 03:32:43;;;;;;;19.83;13.65;;;;;;;;;;5040629;28;20178;-79
2022/01/24 03:35:09;;;;;;;22.77;14.43;;;;;;;;;;5041097;28;20264;-79
2022/01/24 03:37:35;;;;;;;23.60;13.70;;;;;;;;;;5039438;28;20187;-79
2022/01/24 03:40:02;;;;;;;27.48;15.55;;;;;;;;;;5040689;28;20557;-79
2022/01/24 03:42:28;;;;;;;23.92;14.63;;;;;;;;;;5040910;28;20185;-79
2022/01/24 03:44:58;;;;;;;23.23;14.25;;;;;;;;;;5039547;28;20178;-79
2022/01/24 03:50:05;;;;;;;23.42;14.35;;;;;;;;;;5044936;28;20182;-79
2022/01/24 03:52:31;;;;;;;26.42;14.73;;;;;;;;;;5043693;28;20224;-79
2022/01/24 03:54:59;;;;;;;23.52;14.13;;;;;;;;;;5042685;28;20253;-79
2022/01/24 03:57:25;;;;;;;26.95;15.00;;;;;;;;;;5045311;28;20174;-79
2022/01/24 03:59:51;;;;;;;23.55;13.73;;;;;;;;;;5026812;28;20200;-79
2022/01/24 04:02:18;;;;;;;20.85;13.85;;;;;;;;;;5026539;28;20196;-79
2022/01/24 04:04:44;;;;;;;23.20;13.80;;;;;;;;;;5026948;28;20257;-78
2022/01/24 04:07:11;;;;;;;24.20;14.73;;;;;;;;;;5042918;28;20190;-79
2022/01/24 04:09:39;;;;;;;22.00;12.85;;;;;;;;;;5044017;28;20178;-79
2022/01/24 04:12:06;;;;;;;25.70;14.57;;;;;;;;;;5029887;28;20243;-78
2022/01/24 04:22:09;;;;;;;20.10;12.77;;;;;;;;;;5046801;28;20178;-79
2022/01/24 04:24:36;;;;;;;22.77;13.60;;;;;;;;;;5029653;28;20197;-79
2022/01/24 04:27:02;;;;;;;19.10;12.13;;;;;;;;;;5030143;28;20282;-79
2022/01/24 04:29:28;;;;;;;21.77;13.60;;;;;;;;;;5047729;28;20193;-79
2022/01/24 04:31:54;;;;;;;24.00;13.60;;;;;;;;;;5024891;28;20205;-79
2022/01/24 04:34:20;;;;;;;19.58;13.38;;;;;;;;;;5027172;28;20177;-79
2022/01/24 04:36:46;;;;;;;17.90;13.20;;;;;;;;;;5046025;28;20181;-79
2022/01/24 04:39:12;;;;;;;24.95;12.48;;;;;;;;;;5029749;28;20506;-79
2022/01/24 04:41:42;;;;;;;23.48;13.27;;;;;;;;;;5028617;28;20184;-79
2022/01/24 04:44:31;;;;;;;19.30;12.23;;;;;;;;;;5045743;28;20225;-79
2022/01/24 04:47:12;;;;;;;27.27;12.35;;;;;;;;;;5027638;28;20228;-79
2022/01/24 04:53:14;;;;;;;24.20;13.50;;;;;;;;;;5032664;28;20192;-79
2022/01/24 04:55:09;;;;;;;23.02;12.02;;;;;;;;;;5021086;28;20174;-79
2022/01/24 04:57:35;;;;;;;23.38;13.27;;;;;;;;;;5027822;28;20176;-79
2022/01/24 05:00:02;;;;;;;19.13;11.82;;;;;;;;;;5027929;28;20220;-79
2022/01/24 05:02:28;;;;;;;21.90;13.23;;;;;;;;;;5028632;28;20182;-79
2022/01/24 05:04:56;;;;;;;21.80;12.52;;;;;;;;;;5029149;28;20221;-79
2022/01/24 05:07:22;;;;;;;20.52;12.00;;;;;;;;;;5028532;28;20178;-79
2022/01/24 05:09:59;;;;;;;19.27;12.40;;;;;;;;;;5045487;28;20170;-79
2022/01/24 05:26:10;;;;;;;19.98;11.85;;;;;;;;;;5032173;28;20205;-79
2022/01/24 05:28:37;;;;;;;21.95;13.73;;;;;;;;;;5027962;28;20181;-79
2022/01/24 05:31:04;;;;;;;22.77;12.70;;;;;;;;;;5026635;28;20284;-79
2022/01/24 05:33:30;;;;;;;25.25;14.07;;;;;;;;;;5046966;28;20173;-79
2022/01/24 05:35:56;;;;;;;24.50;12.70;;;;;;;;;;5045169;28;20659;-80
2022/01/24 05:38:22;;;;;;;20.33;12.32;;;;;;;;;;5025532;28;20602;-80
2022/01/24 05:40:49;;;;;;;20.55;13.02;;;;;;;;;;5046590;28;20178;-80
2022/01/24 05:43:15;;;;;;;20.58;11.80;;;;;;;;;;5027057;28;20177;-79
2022/01/24 05:45:41;;;;;;;20.20;12.13;;;;;;;;;;5026671;28;20570;-80
2022/01/24 05:48:08;;;;;;;22.10;12.00;;;;;;;;;;5044286;28;20521;-79
2022/01/24 05:50:34;;;;;;;20.13;12.25;;;;;;;;;;5041813;28;20219;-79
2022/01/24 05:53:00;;;;;;;20.92;12.07;;;;;;;;;;5033559;28;20615;-80
2022/01/24 05:55:26;;;;;;;19.48;12.95;;;;;;;;;;5038851;28;20192;-79
2022/01/24 05:57:53;;;;;;;24.75;13.27;;;;;;;;;;5042613;28;20245;-80
2022/01/24 06:00:19;;;;;;;21.33;12.00;;;;;;;;;;5042127;28;20181;-80
2022/01/24 06:02:46;;;;;;;22.50;12.00;;;;;;;;;;5042078;28;20194;-80
2022/01/24 06:05:12;;;;;;;20.67;13.45;;;;;;;;;;5041098;28;20193;-80
2022/01/24 06:07:38;;;;;;;17.70;11.07;;;;;;;;;;5041284;28;20192;-80
2022/01/24 06:10:04;;;;;;;20.67;12.18;;;;;;;;;;5042289;28;20200;-79
2022/01/24 06:12:30;;;;;;;23.48;13.40;;;;;;;;;;5042843;28;20174;-79
2022/01/24 06:14:56;;;;;;;21.55;13.45;;;;;;;;;;5041618;28;20211;-79
2022/01/24 06:17:22;;;;;;;18.77;11.52;;;;;;;;;;5041410;28;20181;-79
2022/01/24 06:19:48;;;;;;;22.63;12.88;;;;;;;;;;5041235;28;20181;-79
2022/01/24 06:22:14;;;;;;;19.15;11.77;;;;;;;;;;5043995;28;20272;-79
2022/01/24 06:24:40;;;;;;;18.33;11.65;;;;;;;;;;5042615;28;20214;-80
2022/01/24 06:27:06;;;;;;;19.13;12.13;;;;;;;;;;5041098;28;20189;-80
2022/01/24 06:29:32;;;;;;;18.88;10.93;;;;;;;;;;5041341;28;20189;-80
2022/01/24 06:31:58;;;;;;;14.88;10.27;;;;;;;;;;5040489;28;20203;-80
2022/01/24 06:34:24;;;;;;;18.67;12.15;;;;;;;;;;5039991;28;20181;-80
2022/01/24 06:36:50;;;;;;;19.75;12.00;;;;;;;;;;5043614;28;20264;-80
2022/01/24 06:39:17;;;;;;;24.52;12.40;;;;;;;;;;5043402;28;20208;-80
2022/01/24 06:41:51;;;;;;;19.80;11.63;;;;;;;;;;5040635;28;20736;-80
2022/01/24 06:44:17;;;;;;;18.17;11.27;;;;;;;;;;5036713;28;20188;-80
2022/01/24 06:46:44;;;;;;;20.83;12.32;;;;;;;;;;5039905;28;20217;-81
2022/01/24 06:49:10;;;;;;;19.40;12.48;;;;;;;;;;5042676;28;20188;-81
2022/01/24 06:51:36;;;;;;;24.35;13.73;;;;;;;;;;5041782;28;20225;-80
2022/01/24 06:54:03;;;;;;;18.08;11.52;;;;;;;;;;5041143;28;20639;-80
2022/01/24 06:56:29;;;;;;;17.23;11.40;;;;;;;;;;5042253;28;20213;-80
2022/01/24 06:58:55;;;;;;;19.33;11.80;;;;;;;;;;5040683;28;20189;-80
2022/01/24 07:01:21;;;;;;;20.73;12.10;;;;;;;;;;5042649;28;20209;-80
2022/01/24 07:03:46;;;;;;;19.50;12.90;;;;;;;;;;5043459;28;20170;-80
2022/01/24 07:06:13;;;;;;;18.15;11.55;;;;;;;;;;5042170;28;20684;-79
2022/01/24 07:08:39;;;;;;;19.05;11.82;;;;;;;;;;5041378;28;20189;-79
2022/01/24 07:11:09;;;;;;;20.67;12.40;;;;;;;;;;5040716;28;20288;-80
2022/01/24 07:13:35;;;;;;;22.92;13.40;;;;;;;;;;5042588;28;20173;-80
2022/01/24 07:16:04;;;;;;;22.13;12.80;;;;;;;;;;5023265;28;20182;-81
2022/01/24 07:20:57;;;;;;;19.52;11.25;;;;;;;;;;5040705;28;20196;-80
2022/01/24 07:23:23;;;;;;;24.35;12.88;;;;;;;;;;5040664;28;20197;-80
2022/01/24 07:25:49;;;;;;;18.08;11.50;;;;;;;;;;5029622;28;20181;-80
2022/01/24 07:28:16;;;;;;;22.40;12.25;;;;;;;;;;5040267;28;20181;-80
2022/01/24 07:30:42;;;;;;;22.65;12.88;;;;;;;;;;5041949;28;20197;-80
2022/01/24 07:33:08;;;;;;;19.45;12.80;;;;;;;;;;5040352;28;20259;-80
2022/01/24 07:35:34;;;;;;;17.10;12.18;;;;;;;;;;5040016;28;20189;-81
2022/01/24 07:38:00;;;;;;;22.88;12.60;;;;;;;;;;5041246;28;20673;-82
2022/01/24 07:40:26;;;;;;;24.85;14.65;;;;;;;;;;5041387;28;20198;-82
2022/01/24 07:43:08;;;;;;;;;;;;;;;;;;;;;
2022/01/24 07:45:22;;;;;;;20.75;12.02;;;;;;;;;;5041667;28;20194;-82
2022/01/24 07:47:48;;;;;;;20.95;13.00;;;;;;;;;;5044216;28;20221;-82
2022/01/24 07:50:18;;;;;;;15.63;11.55;;;;;;;;;;5038374;28;20196;-82
2022/01/24 07:52:44;;;;;;;20.48;12.52;;;;;;;;;;5043110;28;20181;-82
2022/01/24 07:55:10;;;;;;;19.77;12.52;;;;;;;;;;5043964;28;20209;-82
2022/01/24 07:57:36;;;;;;;23.42;13.35;;;;;;;;;;5045344;28;20170;-82
2022/01/24 08:00:03;;;;;;;21.05;13.00;;;;;;;;;;5041906;28;20196;-82
2022/01/24 08:02:29;;;;;;;21.92;12.90;;;;;;;;;;5044072;28;20220;-82
2022/01/24 08:04:55;;;;;;;26.20;14.27;;;;;;;;;;5045808;28;20177;-82
2022/01/24 08:07:21;;;;;;;19.92;13.05;;;;;;;;;;5043785;28;20181;-82
2022/01/24 08:09:47;;;;;;;23.00;14.48;;;;;;;;;;5057919;28;20178;-82
2022/01/24 08:12:13;;;;;;;27.10;14.65;;;;;;;;;;5043385;28;20194;-82
2022/01/24 08:14:39;;;;;;;24.55;14.82;;;;;;;;;;5043658;28;20266;-82
2022/01/24 08:17:05;;;;;;;22.20;12.57;;;;;;;;;;5042145;28;20186;-82
2022/01/24 08:19:33;;;;;;;22.65;14.32;;;;;;;;;;5042496;28;20281;-82
2022/01/24 08:21:59;;;;;;;22.70;13.73;;;;;;;;;;5042425;28;20213;-82
2022/01/24 08:24:25;;;;;;;21.17;14.00;;;;;;;;;;5042600;28;20182;-82
2022/01/24 08:26:51;;;;;;;27.08;14.70;;;;;;;;;;5043182;28;20240;-83
2022/01/24 08:29:17;;;;;;;22.48;14.73;;;;;;;;;;5045337;28;20253;-82
2022/01/24 08:31:43;;;;;;;19.30;13.18;;;;;;;;;;5042476;28;20210;-82
2022/01/24 08:34:09;;;;;;;23.73;14.02;;;;;;;;;;5044045;28;20208;-82
2022/01/24 08:36:35;;;;;;;30.30;14.85;;;;;;;;;;5045241;28;20186;-82
2022/01/24 08:39:07;;;;;;;31.85;15.02;;;;;;;;;;5040405;28;20182;-82
2022/01/24 08:44:20;;;;;;;25.52;17.27;;;;;;;;;;5044047;28;20186;-82
2022/01/24 08:46:47;;;;;;;31.08;17.20;;;;;;;;;;5036823;28;20252;-82
2022/01/24 08:49:13;;;;;;;31.05;16.52;;;;;;;;;;5039173;28;20274;-82
2022/01/24 08:51:40;;;;;;;28.63;16.60;;;;;;;;;;5039255;28;20273;-82
2022/01/24 08:54:07;;;;;;;24.23;14.70;;;;;;;;;;5039985;28;20213;-82
2022/01/24 08:56:33;;;;;;;32.00;16.40;;;;;;;;;;5034170;28;20193;-82
2022/01/24 08:59:00;;;;;;;27.08;14.15;;;;;;;;;;5042467;28;20181;-83
2022/01/24 09:01:26;;;;;;;26.25;14.50;;;;;;;;;;5040148;28;20639;-83
2022/01/24 09:03:52;;;;;;;28.42;16.70;;;;;;;;;;5044134;28;20182;-83
2022/01/24 09:06:20;;;;;;;26.20;16.60;;;;;;;;;;5043809;28;20256;-82
2022/01/24 09:08:51;;;;;;;27.63;15.93;;;;;;;;;;5041968;28;20245;-83
2022/01/24 09:11:17;;;;;;;29.83;16.85;;;;;;;;;;5038118;28;20201;-83
2022/01/24 09:13:43;;;;;;;32.50;17.63;;;;;;;;;;5041315;28;20184;-83
2022/01/24 09:16:09;;;;;;;34.10;18.50;;;;;;;;;;5038875;28;20178;-83
2022/01/24 09:18:35;;;;;;;34.28;17.83;;;;;;;;;;5034266;28;20181;-83
2022/01/24 09:21:02;;;;;;;33.55;18.63;;;;;;;;;;5038339;28;20259;-83
2022/01/24 09:23:28;;;;;;;31.08;17.85;;;;;;;;;;5035662;28;20182;-83
2022/01/24 09:25:54;;;;;;;31.25;17.52;;;;;;;;;;5039715;28;20625;-83
2022/01/24 09:28:21;;;;;;;23.65;17.27;;;;;;;;;;5039179;28;20213;-82
2022/01/24 09:30:47;;;;;;;29.80;18.88;;;;;;;;;;5042642;28;20197;-82
2022/01/24 09:33:13;;;;;;;29.90;16.95;;;;;;;;;;5040893;28;20220;-81
2022/01/24 09:35:40;;;;;;;30.33;17.40;;;;;;;;;;5040778;28;20393;-82
2022/01/24 09:38:06;;;;;;;34.75;17.58;;;;;;;;;;5041757;28;20243;-81
2022/01/24 09:40:33;;;;;;;26.13;17.05;;;;;;;;;;5040132;28;20535;-81
2022/01/24 09:42:59;;;;;;;35.05;19.08;;;;;;;;;;5040249;28;20553;-81
2022/01/24 09:45:26;;;;;;;33.63;19.08;;;;;;;;;;5037624;28;20239;-81
2022/01/24 09:47:53;;;;;;;27.80;18.70;;;;;;;;;;5036733;28;20219;-81
2022/01/24 09:50:19;;;;;;;31.23;18.88;;;;;;;;;;5039724;28;20213;-80
2022/01/24 09:52:46;;;;;;;30.45;18.05;;;;;;;;;;5033954;28;20178;-80
2022/01/24 09:55:13;;;;;;;39.50;19.48;;;;;;;;;;5033216;28;20192;-80
2022/01/24 09:57:41;;;;;;;32.13;17.77;;;;;;;;;;5043021;28;20181;-80
2022/01/24 10:00:08;;;;;;;33.92;18.15;;;;;;;;;;5040710;28;20181;-80
2022/01/24 10:02:34;;;;;;;38.85;20.20;;;;;;;;;;5039702;28;20224;-80
2022/01/24 10:05:15;;;;;;;34.13;18.80;;;;;;;;;;5043596;28;20174;-80
2022/01/24 10:07:41;;;;;;;34.70;20.08;;;;;;;;;;5043521;28;20265;-80
2022/01/24 10:10:08;;;;;;;26.88;18.27;;;;;;;;;;5042041;28;20185;-81
2022/01/24 10:17:53;;;;;;;29.95;18.65;;;;;;;;;;5043109;28;20562;-80
2022/01/24 10:20:21;;;;;;;29.08;19.23;;;;;;;;;;5039903;28;20186;-80
2022/01/24 10:23:06;;;;;;;31.10;19.20;;;;;;;;;;5041088;28;20196;-80
2022/01/24 10:25:32;;;;;;;27.38;17.30;;;;;;;;;;5027277;28;20188;-80
2022/01/24 10:28:02;;;;;;;30.15;20.10;;;;;;;;;;5041471;28;20201;-80
2022/01/24 10:30:29;;;;;;;31.95;20.48;;;;;;;;;;5036423;28;20260;-80
2022/01/24 10:32:56;;;;;;;38.17;21.52;;;;;;;;;;5038173;28;20185;-80
2022/01/24 10:35:28;;;;;;;33.22;19.83;;;;;;;;;;5041301;28;20669;-80
2022/01/24 10:38:15;;;;;;;33.55;21.55;;;;;;;;;;5041807;28;20186;-80
2022/01/24 10:41:06;;;;;;;30.05;18.55;;;;;;;;;;5028482;28;20189;-79
2022/01/24 10:43:33;;;;;;;30.75;18.90;;;;;;;;;;5025508;28;20189;-79
2022/01/24 10:45:59;;;;;;;33.38;20.00;;;;;;;;;;5040747;28;20207;-79
2022/01/24 10:48:33;;;;;;;33.03;19.33;;;;;;;;;;5041231;28;20299;-79
2022/01/24 10:51:19;;;;;;;34.45;20.52;;;;;;;;;;5025071;28;20217;-80
2022/01/24 10:53:49;;;;;;;36.60;17.83;;;;;;;;;;5045569;28;20216;-80
2022/01/24 10:56:34;;;;;;;32.38;19.02;;;;;;;;;;5042212;28;20494;-79
2022/01/24 10:59:05;;;;;;;27.48;18.48;;;;;;;;;;5043105;28;20186;-80
2022/01/24 11:01:31;;;;;;;32.08;20.00;;;;;;;;;;5025263;28;20196;-79
2022/01/24 11:03:58;;;;;;;31.10;19.60;;;;;;;;;;5041266;28;20264;-82
2022/01/24 11:09:35;;;;;;;31.92;20.33;;;;;;;;;;5058533;28;20686;-77
2022/01/24 11:12:09;;;;;;;35.10;20.63;;;;;;;;;;5055968;28;20185;-77
2022/01/24 11:14:36;;;;;;;30.30;19.15;;;;;;;;;;5056441;28;20173;-77
2022/01/24 11:17:03;;;;;;;30.80;18.92;;;;;;;;;;5046319;28;20181;-76
2022/01/24 11:19:43;;;;;;;30.73;18.73;;;;;;;;;;5052874;28;20682;-76
2022/01/24 11:22:19;;;;;;;31.98;18.77;;;;;;;;;;5067171;28;20168;-76
2022/01/24 11:24:52;;;;;;;31.40;20.60;;;;;;;;;;5068377;28;20177;-77
2022/01/24 11:27:18;;;;;;;31.23;20.95;;;;;;;;;;5058921;28;20166;-78
2022/01/24 11:29:44;;;;;;;32.65;21.02;;;;;;;;;;5073950;28;20176;-78
2022/01/24 11:32:19;;;;;;;32.20;21.35;;;;;;;;;;5060550;28;20189;-77
2022/01/24 11:34:48;;;;;;;29.60;18.98;;;;;;;;;;5052093;28;20177;-77
2022/01/24 11:37:31;;;;;;;29.17;19.52;;;;;;;;;;5057158;28;20182;-77
2022/01/24 11:39:57;;;;;;;30.80;19.48;;;;;;;;;;5054172;28;20172;-76
2022/01/24 11:42:31;;;;;;;31.55;19.73;;;;;;;;;;5057079;28;20208;-77
2022/01/24 11:45:03;;;;;;;43.08;19.65;;;;;;;;;;5065038;28;20472;-78
2022/01/24 11:47:31;;;;;;;35.30;20.05;;;;;;;;;;5055230;28;20807;-76
2022/01/24 11:49:57;;;;;;;26.80;19.60;;;;;;;;;;5055771;28;20424;-76
2022/01/24 11:52:31;;;;;;;26.77;18.10;;;;;;;;;;5057315;28;20185;-76
2022/01/24 11:55:15;;;;;;;31.08;19.88;;;;;;;;;;5058773;28;20169;-78
2022/01/24 11:57:47;;;;;;;32.70;19.35;;;;;;;;;;5056897;28;20184;-78
2022/01/24 12:00:13;;;;;;;33.70;19.65;;;;;;;;;;5044310;28;20667;-79
2022/01/24 12:02:42;;;;;;;28.13;18.50;;;;;;;;;;5055469;28;20203;-78
2022/01/24 12:05:18;;;;;;;23.95;17.85;;;;;;;;;;5051644;28;20440;-78
2022/01/24 12:07:49;;;;;;;28.73;17.63;;;;;;;;;;5056615;28;20212;-78
2022/01/24 12:10:26;;;;;;;36.83;19.63;;;;;;;;;;5051977;28;20185;-78
2022/01/24 12:13:00;;;;;;;28.10;17.25;;;;;;;;;;5055054;28;20177;-78
2022/01/24 12:15:39;;;;;;;30.95;19.35;;;;;;;;;;5070260;28;20173;-78
2022/01/24 12:18:05;;;;;;;28.77;16.98;;;;;;;;;;5051037;28;20200;-78
2022/01/24 12:20:31;;;;;;;35.40;16.90;;;;;;;;;;5040173;28;20189;-78
2022/01/24 12:22:57;;;;;;;25.48;16.48;;;;;;;;;;5049190;28;20516;-78
2022/01/24 12:25:46;;;;;;;32.45;18.45;;;;;;;;;;5041585;28;20186;-77
2022/01/24 12:28:20;;;;;;;30.10;16.77;;;;;;;;;;5033318;28;20607;-79
2022/01/24 12:31:06;;;;;;;28.23;16.42;;;;;;;;;;5054556;28;20185;-78
2022/01/24 12:33:52;;;;;;;29.48;18.50;;;;;;;;;;5054218;28;20261;-78
2022/01/24 12:36:48;;;;;;;32.22;18.20;;;;;;;;;;5048342;28;20765;-78
2022/01/24 12:39:20;;;;;;;30.33;18.00;;;;;;;;;;5045881;28;20274;-78
2022/01/24 12:41:54;;;;;;;24.80;17.77;;;;;;;;;;5048482;28;20194;-79
2022/01/24 12:47:03;;;;;;;27.98;18.30;;;;;;;;;;5026880;28;20197;-77
2022/01/24 12:49:29;;;;;;;25.80;16.73;;;;;;;;;;5029476;28;20186;-75
2022/01/24 12:51:55;;;;;;;22.70;16.50;;;;;;;;;;5044777;28;20431;-78
2022/01/24 12:54:28;;;;;;;25.92;17.20;;;;;;;;;;5041749;28;20190;-77
2022/01/24 12:56:58;;;;;;;23.90;16.75;;;;;;;;;;5043618;28;20204;-79
2022/01/24 12:59:24;;;;;;;25.98;18.33;;;;;;;;;;5041640;28;20207;-79
2022/01/24 13:01:52;;;;;;;23.20;16.40;;;;;;;;;;5039450;28;20257;-79
2022/01/24 13:04:18;;;;;;;30.95;17.65;;;;;;;;;;5042354;28;20659;-79
2022/01/24 13:06:46;;;;;;;23.48;16.65;;;;;;;;;;5044567;28;20216;-79
2022/01/24 13:09:24;;;;;;;27.15;16.20;;;;;;;;;;5043417;28;20255;-80
2022/01/24 13:11:52;;;;;;;30.27;17.38;;;;;;;;;;5037865;28;20182;-79
2022/01/24 13:14:30;;;;;;;26.27;17.60;;;;;;;;;;5040965;28;20178;-78
2022/01/24 13:25:03;;;;;;;23.90;16.77;;;;;;;;;;5044799;28;20190;-76
2022/01/24 13:27:35;;;;;;;26.20;16.85;;;;;;;;;;5039847;28;20193;-76
2022/01/24 13:30:01;;;;;;;30.10;18.55;;;;;;;;;;5042914;28;20241;-76
2022/01/24 13:32:41;;;;;;;23.42;16.33;;;;;;;;;;5040990;28;20237;-77
2022/01/24 13:35:18;;;;;;;26.40;16.58;;;;;;;;;;5041533;28;20245;-77
2022/01/24 13:37:44;;;;;;;23.52;17.15;;;;;;;;;;5041859;28;20236;-76
2022/01/24 13:40:10;;;;;;;22.77;14.52;;;;;;;;;;5039608;28;20701;-74
2022/01/24 13:42:37;;;;;;;23.00;16.25;;;;;;;;;;5043557;28;20216;-77
2022/01/24 13:45:04;;;;;;;23.65;16.50;;;;;;;;;;5041193;28;20327;-73
2022/01/24 13:47:30;;;;;;;23.13;16.85;;;;;;;;;;5041180;28;20198;-76
2022/01/24 13:49:56;;;;;;;23.40;16.63;;;;;;;;;;5039222;28;20182;-76
2022/01/24 13:52:25;;;;;;;20.92;15.13;;;;;;;;;;5041853;28;20298;-76
2022/01/24 13:54:51;;;;;;;23.52;15.32;;;;;;;;;;5053823;28;20178;-76
2022/01/24 13:57:18;;;;;;;22.83;15.95;;;;;;;;;;5036774;28;20235;-76
2022/01/24 13:59:44;;;;;;;22.63;14.27;;;;;;;;;;5040550;28;20640;-76
2022/01/24 14:02:10;;;;;;;23.52;16.85;;;;;;;;;;5034715;28;20193;-76
2022/01/24 14:04:37;;;;;;;29.55;15.82;;;;;;;;;;5037013;28;20193;-76
2022/01/24 14:07:11;;;;;;;26.15;17.02;;;;;;;;;;5029115;28;20252;-76
2022/01/24 14:09:42;;;;;;;27.00;16.85;;;;;;;;;;5034348;28;20182;-77
2022/01/24 14:12:10;;;;;;;21.75;14.60;;;;;;;;;;5037760;28;20208;-80
2022/01/24 14:14:54;;;;;;;25.95;15.68;;;;;;;;;;5038511;28;20201;-77
2022/01/24 14:17:51;;;;;;;24.25;15.23;;;;;;;;;;5031754;28;20189;-76
2022/01/24 14:20:09;;;;;;;22.13;15.55;;;;;;;;;;5032938;28;20589;-75
2022/01/24 14:22:42;;;;;;;21.52;15.00;;;;;;;;;;5039721;28;20174;-76
2022/01/24 14:25:31;;;;;;;22.55;15.18;;;;;;;;;;5036077;28;20202;-75
2022/01/24 14:27:58;;;;;;;20.58;15.52;;;;;;;;;;5032663;28;20206;-75
2022/01/24 14:30:27;;;;;;;20.42;15.35;;;;;;;;;;5034741;28;20183;-77
2022/01/24 14:33:05;;;;;;;25.10;16.58;;;;;;;;;;5035536;28;20188;-76
2022/01/24 14:35:35;;;;;;;23.25;14.73;;;;;;;;;;5039819;28;20177;-77
2022/01/24 14:38:01;;;;;;;22.63;15.35;;;;;;;;;;5034591;28;20208;-76
2022/01/24 14:40:46;;;;;;;21.00;14.73;;;;;;;;;;5070830;28;20209;-76
2022/01/24 14:46:01;;;;;;;17.63;13.40;;;;;;;;;;5037155;28;20181;-76
2022/01/24 14:48:27;;;;;;;20.50;13.23;;;;;;;;;;5032545;28;20207;-79
2022/01/24 14:50:53;;;;;;;21.13;14.20;;;;;;;;;;5040296;28;20268;-78
2022/01/24 14:53:20;;;;;;;18.85;13.32;;;;;;;;;;5039039;28;20273;-75
2022/01/24 14:55:46;;;;;;;23.33;13.32;;;;;;;;;;5029098;28;20178;-74
2022/01/24 14:58:12;;;;;;;20.90;13.75;;;;;;;;;;5036947;28;20188;-75
2022/01/24 15:00:38;;;;;;;22.50;14.15;;;;;;;;;;5031330;28;20193;-75
2022/01/24 15:03:04;;;;;;;18.58;13.82;;;;;;;;;;5039381;28;20193;-76
2022/01/24 15:05:30;;;;;;;21.85;14.30;;;;;;;;;;5041518;28;20663;-77
2022/01/24 15:07:56;;;;;;;17.83;12.68;;;;;;;;;;5038312;28;20232;-76
2022/01/24 15:10:22;;;;;;;20.83;13.60;;;;;;;;;;5028490;28;20197;-76
2022/01/24 15:12:52;;;;;;;22.88;13.10;;;;;;;;;;5031034;28;20170;-75
2022/01/24 15:15:21;;;;;;;20.75;12.55;;;;;;;;;;5030648;28;20214;-75
2022/01/24 15:25:51;;;;;;;18.40;13.20;;;;;;;;;;5038040;28;20200;-76
2022/01/24 15:28:18;;;;;;;16.90;12.68;;;;;;;;;;5042611;28;20206;-76
2022/01/24 15:30:44;;;;;;;19.35;12.38;;;;;;;;;;5039258;28;20186;-76
2022/01/24 15:33:10;;;;;;;21.63;13.95;;;;;;;;;;5038282;28;20189;-75
2022/01/24 15:35:36;;;;;;;23.05;14.35;;;;;;;;;;5034548;28;20193;-76
2022/01/24 15:38:04;;;;;;;20.75;13.60;;;;;;;;;;5036011;28;20190;-76
2022/01/24 15:40:31;;;;;;;23.30;14.90;;;;;;;;;;5035144;28;20183;-76
2022/01/24 15:47:55;;;;;;;22.02;13.18;;;;;;;;;;5040426;28;20220;-75
2022/01/24 15:50:23;;;;;;;20.17;14.23;;;;;;;;;;5035479;28;20280;-75
2022/01/24 15:52:49;;;;;;;19.30;13.10;;;;;;;;;;5036237;28;20174;-75
2022/01/24 15:55:16;;;;;;;18.98;13.10;;;;;;;;;;5041529;28;20237;-75
2022/01/24 15:57:44;;;;;;;22.48;14.55;;;;;;;;;;5045998;28;20188;-76
2022/01/24 16:00:23;;;;;;;18.90;12.63;;;;;;;;;;5035682;28;20194;-75
2022/01/24 16:02:51;;;;;;;16.95;12.88;;;;;;;;;;5036343;28;20189;-76
2022/01/24 16:05:18;;;;;;;21.73;12.27;;;;;;;;;;5043824;28;20205;-76
2022/01/24 16:07:44;;;;;;;18.02;12.60;;;;;;;;;;5043035;28;20233;-76
2022/01/24 16:10:11;;;;;;;20.98;11.80;;;;;;;;;;5041296;28;20182;-75
2022/01/24 16:12:38;;;;;;;18.70;12.10;;;;;;;;;;5044002;28;20170;-75
2022/01/24 16:15:05;;;;;;;23.58;12.85;;;;;;;;;;5039323;28;20216;-74
2022/01/24 16:17:31;;;;;;;16.15;11.20;;;;;;;;;;5042387;28;20670;-76
2022/01/24 16:19:59;;;;;;;22.05;11.98;;;;;;;;;;5039235;28;20190;-76
2022/01/24 16:22:52;;;;;;;17.00;11.63;;;;;;;;;;5038720;28;20224;-75
2022/01/24 16:25:47;;;;;;;15.27;10.88;;;;;;;;;;5042014;28;20202;-75
2022/01/24 16:28:09;;;;;;;17.65;11.55;;;;;;;;;;5041548;28;20225;-76
2022/01/24 16:30:36;;;;;;;17.10;11.90;;;;;;;;;;5041589;28;20181;-76